sensor_id;sensor_type;location;lat;lon;timestamp;temperature;humidity
70676;DHT22;59069;52.242;20.900;2022-12-29T00:01:47;6.61;70.93
70676;DHT22;59069;52.242;20.900;2022-12-29T00:04:14;6.63;70.82
70676;DHT22;59069;52.242;20.900;2022-12-29T00:06:40;6.63;70.87
70676;DHT22;59069;52.242;20.900;2022-12-29T00:09:06;6.60;70.85
70676;DHT22;59069;52.242;20.900;2022-12-29T00:11:32;6.67;70.78
70676;DHT22;59069;52.242;20.900;2022-12-29T00:13:58;6.65;70.76
70676;DHT22;59069;52.242;20.900;2022-12-29T00:16:43;6.65;70.69
70676;DHT22;59069;52.242;20.900;2022-12-29T00:19:11;6.63;70.64
70676;DHT22;59069;52.242;20.900;2022-12-29T00:21:57;6.65;70.52
70676;DHT22;59069;52.242;20.900;2022-12-29T00:24:42;6.64;70.52
70676;DHT22;59069;52.242;20.900;2022-12-29T00:27:20;6.64;70.53
70676;DHT22;59069;52.242;20.900;2022-12-29T00:30:09;6.67;70.45
70676;DHT22;59069;52.242;20.900;2022-12-29T00:32:53;6.68;70.39
70676;DHT22;59069;52.242;20.900;2022-12-29T00:35:42;6.68;70.40
70676;DHT22;59069;52.242;20.900;2022-12-29T00:38:10;6.67;70.41
70676;DHT22;59069;52.242;20.900;2022-12-29T00:40:55;6.65;70.41
70676;DHT22;59069;52.242;20.900;2022-12-29T00:43:39;6.65;70.37
70676;DHT22;59069;52.242;20.900;2022-12-29T00:46:22;6.65;70.33
70676;DHT22;59069;52.242;20.900;2022-12-29T00:48:48;6.68;70.36
70676;DHT22;59069;52.242;20.900;2022-12-29T00:51:33;6.67;70.37
70676;DHT22;59069;52.242;20.900;2022-12-29T00:53:58;6.67;70.40
70676;DHT22;59069;52.242;20.900;2022-12-29T00:56:24;6.64;70.40
70676;DHT22;59069;52.242;20.900;2022-12-29T00:58:49;6.64;70.42
70676;DHT22;59069;52.242;20.900;2022-12-29T01:01:15;6.68;70.33
70676;DHT22;59069;52.242;20.900;2022-12-29T01:03:41;6.70;70.31
70676;DHT22;59069;52.242;20.900;2022-12-29T01:06:10;6.71;70.34
70676;DHT22;59069;52.242;20.900;2022-12-29T01:08:36;6.74;70.32
70676;DHT22;59069;52.242;20.900;2022-12-29T01:13:31;6.75;70.16
70676;DHT22;59069;52.242;20.900;2022-12-29T01:15:57;6.75;70.05
70676;DHT22;59069;52.242;20.900;2022-12-29T01:18:24;6.80;69.94
70676;DHT22;59069;52.242;20.900;2022-12-29T01:20:50;6.81;69.86
70676;DHT22;59069;52.242;20.900;2022-12-29T01:23:16;6.80;69.76
70676;DHT22;59069;52.242;20.900;2022-12-29T01:25:42;6.81;69.70
70676;DHT22;59069;52.242;20.900;2022-12-29T01:28:08;6.87;69.64
70676;DHT22;59069;52.242;20.900;2022-12-29T01:30:36;6.87;69.58
70676;DHT22;59069;52.242;20.900;2022-12-29T01:33:02;6.88;69.47
70676;DHT22;59069;52.242;20.900;2022-12-29T01:35:28;6.88;69.43
70676;DHT22;59069;52.242;20.900;2022-12-29T01:37:54;6.87;69.36
70676;DHT22;59069;52.242;20.900;2022-12-29T01:40:19;6.88;69.35
70676;DHT22;59069;52.242;20.900;2022-12-29T01:42:45;6.89;69.32
70676;DHT22;59069;52.242;20.900;2022-12-29T01:45:12;6.88;69.34
70676;DHT22;59069;52.242;20.900;2022-12-29T01:47:50;6.89;69.31
70676;DHT22;59069;52.242;20.900;2022-12-29T01:50:25;6.88;69.27
70676;DHT22;59069;52.242;20.900;2022-12-29T01:53:18;6.92;69.14
70676;DHT22;59069;52.242;20.900;2022-12-29T01:56:03;6.93;69.14
70676;DHT22;59069;52.242;20.900;2022-12-29T01:58:33;6.93;69.11
70676;DHT22;59069;52.242;20.900;2022-12-29T02:01:03;6.92;69.28
70676;DHT22;59069;52.242;20.900;2022-12-29T02:03:30;6.93;69.28
70676;DHT22;59069;52.242;20.900;2022-12-29T02:06:18;6.88;69.39
70676;DHT22;59069;52.242;20.900;2022-12-29T02:08:46;6.84;69.57
70676;DHT22;59069;52.242;20.900;2022-12-29T02:11:13;6.88;69.79
70676;DHT22;59069;52.242;20.900;2022-12-29T02:13:39;6.87;69.73
70676;DHT22;59069;52.242;20.900;2022-12-29T02:22:04;6.84;70.18
70676;DHT22;59069;52.242;20.900;2022-12-29T02:27:23;6.82;70.73
70676;DHT22;59069;52.242;20.900;2022-12-29T02:37:57;6.72;71.75
70676;DHT22;59069;52.242;20.900;2022-12-29T02:43:04;6.67;72.45
70676;DHT22;59069;52.242;20.900;2022-12-29T02:45:54;6.64;72.47
70676;DHT22;59069;52.242;20.900;2022-12-29T02:51:04;6.60;72.86
70676;DHT22;59069;52.242;20.900;2022-12-29T02:53:33;6.55;73.12
70676;DHT22;59069;52.242;20.900;2022-12-29T02:56:19;6.50;73.41
70676;DHT22;59069;52.242;20.900;2022-12-29T02:58:44;6.45;73.78
70676;DHT22;59069;52.242;20.900;2022-12-29T03:04:51;6.38;74.45
70676;DHT22;59069;52.242;20.900;2022-12-29T03:16:20;6.24;76.20
70676;DHT22;59069;52.242;20.900;2022-12-29T03:19:08;6.20;76.48
70676;DHT22;59069;52.242;20.900;2022-12-29T03:21:45;6.17;76.81
70676;DHT22;59069;52.242;20.900;2022-12-29T03:24:36;6.12;77.06
70676;DHT22;59069;52.242;20.900;2022-12-29T03:27:05;6.05;77.35
70676;DHT22;59069;52.242;20.900;2022-12-29T03:29:37;6.00;77.61
70676;DHT22;59069;52.242;20.900;2022-12-29T03:32:06;5.98;77.84
70676;DHT22;59069;52.242;20.900;2022-12-29T03:34:33;5.86;78.04
70676;DHT22;59069;52.242;20.900;2022-12-29T03:37:09;5.78;78.41
70676;DHT22;59069;52.242;20.900;2022-12-29T03:39:36;5.72;78.62
70676;DHT22;59069;52.242;20.900;2022-12-29T03:42:06;5.68;78.87
70676;DHT22;59069;52.242;20.900;2022-12-29T03:44:40;5.58;79.11
70676;DHT22;59069;52.242;20.900;2022-12-29T03:47:07;5.54;79.43
70676;DHT22;59069;52.242;20.900;2022-12-29T03:49:33;5.48;79.54
70676;DHT22;59069;52.242;20.900;2022-12-29T03:51:59;5.48;79.75
70676;DHT22;59069;52.242;20.900;2022-12-29T03:54:24;5.47;79.80
70676;DHT22;59069;52.242;20.900;2022-12-29T03:56:50;5.45;79.92
70676;DHT22;59069;52.242;20.900;2022-12-29T03:59:15;5.41;79.94
70676;DHT22;59069;52.242;20.900;2022-12-29T04:01:41;5.35;79.94
70676;DHT22;59069;52.242;20.900;2022-12-29T04:04:07;5.32;80.08
70676;DHT22;59069;52.242;20.900;2022-12-29T04:06:32;5.30;80.09
70676;DHT22;59069;52.242;20.900;2022-12-29T04:08:58;5.28;80.07
70676;DHT22;59069;52.242;20.900;2022-12-29T04:11:23;5.26;80.09
70676;DHT22;59069;52.242;20.900;2022-12-29T04:13:49;5.24;80.15
70676;DHT22;59069;52.242;20.900;2022-12-29T04:16:15;5.26;80.19
70676;DHT22;59069;52.242;20.900;2022-12-29T04:18:40;5.24;80.28
70676;DHT22;59069;52.242;20.900;2022-12-29T04:21:06;5.24;80.18
70676;DHT22;59069;52.242;20.900;2022-12-29T04:23:34;5.24;80.16
70676;DHT22;59069;52.242;20.900;2022-12-29T04:26:00;5.23;80.19
70676;DHT22;59069;52.242;20.900;2022-12-29T04:28:26;5.20;80.16
70676;DHT22;59069;52.242;20.900;2022-12-29T04:30:52;5.20;80.17
70676;DHT22;59069;52.242;20.900;2022-12-29T04:33:18;5.18;80.15
70676;DHT22;59069;52.242;20.900;2022-12-29T04:35:44;5.20;80.15
70676;DHT22;59069;52.242;20.900;2022-12-29T04:38:10;5.16;80.10
70676;DHT22;59069;52.242;20.900;2022-12-29T04:40:38;5.13;80.17
70676;DHT22;59069;52.242;20.900;2022-12-29T04:43:03;5.08;80.24
70676;DHT22;59069;52.242;20.900;2022-12-29T04:45:29;5.07;80.25
70676;DHT22;59069;52.242;20.900;2022-12-29T04:47:55;5.07;80.40
70676;DHT22;59069;52.242;20.900;2022-12-29T04:50:21;5.04;80.36
70676;DHT22;59069;52.242;20.900;2022-12-29T04:52:46;5.04;80.39
70676;DHT22;59069;52.242;20.900;2022-12-29T04:55:12;5.08;80.33
70676;DHT22;59069;52.242;20.900;2022-12-29T04:57:37;5.08;80.32
70676;DHT22;59069;52.242;20.900;2022-12-29T05:00:04;5.07;80.14
70676;DHT22;59069;52.242;20.900;2022-12-29T05:02:30;5.06;80.04
70676;DHT22;59069;52.242;20.900;2022-12-29T05:04:55;5.06;79.75
70676;DHT22;59069;52.242;20.900;2022-12-29T05:07:21;5.04;79.43
70676;DHT22;59069;52.242;20.900;2022-12-29T05:09:47;5.03;79.25
70676;DHT22;59069;52.242;20.900;2022-12-29T05:12:12;5.08;79.10
70676;DHT22;59069;52.242;20.900;2022-12-29T05:14:38;5.08;78.98
70676;DHT22;59069;52.242;20.900;2022-12-29T05:17:04;5.11;78.84
70676;DHT22;59069;52.242;20.900;2022-12-29T05:19:29;5.11;78.73
70676;DHT22;59069;52.242;20.900;2022-12-29T05:21:55;5.14;78.57
70676;DHT22;59069;52.242;20.900;2022-12-29T05:24:21;5.17;78.40
70676;DHT22;59069;52.242;20.900;2022-12-29T05:26:47;5.16;78.15
70676;DHT22;59069;52.242;20.900;2022-12-29T05:29:12;5.14;77.87
70676;DHT22;59069;52.242;20.900;2022-12-29T05:31:38;5.16;77.61
70676;DHT22;59069;52.242;20.900;2022-12-29T05:34:04;5.16;77.35
70676;DHT22;59069;52.242;20.900;2022-12-29T05:36:30;5.13;77.16
70676;DHT22;59069;52.242;20.900;2022-12-29T05:38:55;5.13;77.11
70676;DHT22;59069;52.242;20.900;2022-12-29T05:41:21;5.10;76.97
70676;DHT22;59069;52.242;20.900;2022-12-29T05:43:47;5.13;76.88
70676;DHT22;59069;52.242;20.900;2022-12-29T05:46:12;5.10;76.98
70676;DHT22;59069;52.242;20.900;2022-12-29T05:48:38;5.11;76.87
70676;DHT22;59069;52.242;20.900;2022-12-29T05:51:03;5.13;76.73
70676;DHT22;59069;52.242;20.900;2022-12-29T05:53:29;5.14;76.63
70676;DHT22;59069;52.242;20.900;2022-12-29T05:55:55;5.14;76.49
70676;DHT22;59069;52.242;20.900;2022-12-29T05:58:20;5.17;76.53
70676;DHT22;59069;52.242;20.900;2022-12-29T06:00:46;5.20;76.36
70676;DHT22;59069;52.242;20.900;2022-12-29T06:03:12;5.21;76.21
70676;DHT22;59069;52.242;20.900;2022-12-29T06:05:37;5.24;75.96
70676;DHT22;59069;52.242;20.900;2022-12-29T06:08:03;5.24;75.82
70676;DHT22;59069;52.242;20.900;2022-12-29T06:10:29;5.30;75.53
70676;DHT22;59069;52.242;20.900;2022-12-29T06:12:55;5.26;75.42
70676;DHT22;59069;52.242;20.900;2022-12-29T06:15:20;5.28;75.31
70676;DHT22;59069;52.242;20.900;2022-12-29T06:17:46;5.28;75.12
70676;DHT22;59069;52.242;20.900;2022-12-29T06:20:11;5.28;75.05
70676;DHT22;59069;52.242;20.900;2022-12-29T06:22:38;5.30;74.87
70676;DHT22;59069;52.242;20.900;2022-12-29T06:25:04;5.31;74.76
70676;DHT22;59069;52.242;20.900;2022-12-29T06:27:30;5.32;74.70
70676;DHT22;59069;52.242;20.900;2022-12-29T06:29:56;5.34;74.59
70676;DHT22;59069;52.242;20.900;2022-12-29T06:32:22;5.37;74.60
70676;DHT22;59069;52.242;20.900;2022-12-29T06:34:47;5.41;74.46
70676;DHT22;59069;52.242;20.900;2022-12-29T06:37:13;5.42;74.38
70676;DHT22;59069;52.242;20.900;2022-12-29T06:39:40;5.44;74.31
70676;DHT22;59069;52.242;20.900;2022-12-29T06:42:05;5.44;74.30
70676;DHT22;59069;52.242;20.900;2022-12-29T06:44:31;5.45;74.32
70676;DHT22;59069;52.242;20.900;2022-12-29T06:46:57;5.48;74.44
70676;DHT22;59069;52.242;20.900;2022-12-29T06:49:22;5.49;74.31
70676;DHT22;59069;52.242;20.900;2022-12-29T06:51:48;5.55;74.33
70676;DHT22;59069;52.242;20.900;2022-12-29T06:54:14;5.55;74.35
70676;DHT22;59069;52.242;20.900;2022-12-29T06:56:39;5.59;74.24
70676;DHT22;59069;52.242;20.900;2022-12-29T06:59:05;5.58;74.20
70676;DHT22;59069;52.242;20.900;2022-12-29T07:01:31;5.62;74.11
70676;DHT22;59069;52.242;20.900;2022-12-29T07:03:57;5.65;74.06
70676;DHT22;59069;52.242;20.900;2022-12-29T07:06:23;5.69;73.97
70676;DHT22;59069;52.242;20.900;2022-12-29T07:08:48;5.72;73.81
70676;DHT22;59069;52.242;20.900;2022-12-29T07:11:14;5.72;73.62
70676;DHT22;59069;52.242;20.900;2022-12-29T07:13:40;5.73;73.46
70676;DHT22;59069;52.242;20.900;2022-12-29T07:16:07;5.73;73.21
70676;DHT22;59069;52.242;20.900;2022-12-29T07:18:33;5.79;73.06
70676;DHT22;59069;52.242;20.900;2022-12-29T07:20:59;5.78;72.85
70676;DHT22;59069;52.242;20.900;2022-12-29T07:23:24;5.80;72.80
70676;DHT22;59069;52.242;20.900;2022-12-29T07:25:50;5.82;72.72
70676;DHT22;59069;52.242;20.900;2022-12-29T07:28:16;5.85;72.73
70676;DHT22;59069;52.242;20.900;2022-12-29T07:30:41;5.88;72.63
70676;DHT22;59069;52.242;20.900;2022-12-29T07:33:07;5.93;72.48
70676;DHT22;59069;52.242;20.900;2022-12-29T07:35:35;5.96;72.31
70676;DHT22;59069;52.242;20.900;2022-12-29T07:38:01;6.02;72.25
70676;DHT22;59069;52.242;20.900;2022-12-29T07:40:27;6.06;72.09
70676;DHT22;59069;52.242;20.900;2022-12-29T07:42:52;6.07;71.72
70676;DHT22;59069;52.242;20.900;2022-12-29T07:45:18;6.10;71.48
70676;DHT22;59069;52.242;20.900;2022-12-29T07:47:46;6.16;71.38
70676;DHT22;59069;52.242;20.900;2022-12-29T07:50:12;6.17;71.04
70676;DHT22;59069;52.242;20.900;2022-12-29T07:52:38;6.24;71.08
70676;DHT22;59069;52.242;20.900;2022-12-29T07:55:04;6.24;70.94
70676;DHT22;59069;52.242;20.900;2022-12-29T07:57:29;6.31;70.76
70676;DHT22;59069;52.242;20.900;2022-12-29T07:59:55;6.31;70.63
70676;DHT22;59069;52.242;20.900;2022-12-29T08:02:21;6.40;70.57
70676;DHT22;59069;52.242;20.900;2022-12-29T08:04:46;6.43;70.72
70676;DHT22;59069;52.242;20.900;2022-12-29T08:07:12;6.48;70.44
70676;DHT22;59069;52.242;20.900;2022-12-29T08:09:37;6.55;70.28
70676;DHT22;59069;52.242;20.900;2022-12-29T08:12:03;6.61;70.20
70676;DHT22;59069;52.242;20.900;2022-12-29T08:14:29;6.70;70.09
70676;DHT22;59069;52.242;20.900;2022-12-29T08:16:54;6.77;70.04
70676;DHT22;59069;52.242;20.900;2022-12-29T08:19:20;6.80;69.60
70676;DHT22;59069;52.242;20.900;2022-12-29T08:21:45;6.88;69.39
70676;DHT22;59069;52.242;20.900;2022-12-29T08:24:11;6.95;69.23
70676;DHT22;59069;52.242;20.900;2022-12-29T08:26:37;6.99;68.98
70676;DHT22;59069;52.242;20.900;2022-12-29T08:29:02;7.05;68.78
70676;DHT22;59069;52.242;20.900;2022-12-29T08:31:28;7.13;68.59
70676;DHT22;59069;52.242;20.900;2022-12-29T08:33:53;7.19;68.38
70676;DHT22;59069;52.242;20.900;2022-12-29T08:36:19;7.26;68.22
70676;DHT22;59069;52.242;20.900;2022-12-29T08:38:45;7.29;67.56
70676;DHT22;59069;52.242;20.900;2022-12-29T08:41:11;7.33;67.52
70676;DHT22;59069;52.242;20.900;2022-12-29T08:43:36;7.37;67.22
70676;DHT22;59069;52.242;20.900;2022-12-29T08:46:02;7.44;66.98
70676;DHT22;59069;52.242;20.900;2022-12-29T08:48:28;7.46;66.82
70676;DHT22;59069;52.242;20.900;2022-12-29T08:50:53;7.49;66.64
70676;DHT22;59069;52.242;20.900;2022-12-29T08:53:19;7.54;66.32
70676;DHT22;59069;52.242;20.900;2022-12-29T08:55:46;7.57;66.33
70676;DHT22;59069;52.242;20.900;2022-12-29T08:58:12;7.64;66.42
70676;DHT22;59069;52.242;20.900;2022-12-29T09:00:40;7.70;66.15
70676;DHT22;59069;52.242;20.900;2022-12-29T09:03:06;7.73;65.82
70676;DHT22;59069;52.242;20.900;2022-12-29T09:05:32;7.74;65.45
70676;DHT22;59069;52.242;20.900;2022-12-29T09:07:57;7.80;65.63
70676;DHT22;59069;52.242;20.900;2022-12-29T09:10:23;7.87;65.82
70676;DHT22;59069;52.242;20.900;2022-12-29T09:12:49;7.94;65.35
70676;DHT22;59069;52.242;20.900;2022-12-29T09:15:14;7.99;65.19
70676;DHT22;59069;52.242;20.900;2022-12-29T09:17:41;8.08;64.95
70676;DHT22;59069;52.242;20.900;2022-12-29T09:20:16;8.18;64.78
70676;DHT22;59069;52.242;20.900;2022-12-29T09:22:42;8.26;64.54
70676;DHT22;59069;52.242;20.900;2022-12-29T09:25:08;8.31;64.20
70676;DHT22;59069;52.242;20.900;2022-12-29T09:27:35;8.36;63.81
70676;DHT22;59069;52.242;20.900;2022-12-29T09:30:02;8.38;63.32
70676;DHT22;59069;52.242;20.900;2022-12-29T09:32:27;8.35;62.92
70676;DHT22;59069;52.242;20.900;2022-12-29T09:34:53;8.31;62.93
70676;DHT22;59069;52.242;20.900;2022-12-29T09:37:19;8.31;62.93
70676;DHT22;59069;52.242;20.900;2022-12-29T09:39:44;8.31;63.02
70676;DHT22;59069;52.242;20.900;2022-12-29T09:42:19;8.32;63.12
70676;DHT22;59069;52.242;20.900;2022-12-29T09:47:31;8.35;63.20
70676;DHT22;59069;52.242;20.900;2022-12-29T09:52:58;8.42;63.22
70676;DHT22;59069;52.242;20.900;2022-12-29T09:55:52;8.45;62.93
70676;DHT22;59069;52.242;20.900;2022-12-29T09:58:32;8.45;62.85
70676;DHT22;59069;52.242;20.900;2022-12-29T10:03:54;8.46;62.68
70676;DHT22;59069;52.242;20.900;2022-12-29T10:06:42;8.50;62.44
70676;DHT22;59069;52.242;20.900;2022-12-29T10:20:33;8.42;62.80
70676;DHT22;59069;52.242;20.900;2022-12-29T10:25:57;8.46;62.89
70676;DHT22;59069;52.242;20.900;2022-12-29T10:28:40;8.46;62.77
70676;DHT22;59069;52.242;20.900;2022-12-29T10:31:15;8.45;62.71
70676;DHT22;59069;52.242;20.900;2022-12-29T10:33:45;8.48;62.64
70676;DHT22;59069;52.242;20.900;2022-12-29T10:36:43;8.50;62.73
70676;DHT22;59069;52.242;20.900;2022-12-29T10:39:34;8.53;62.71
70676;DHT22;59069;52.242;20.900;2022-12-29T10:42:27;8.60;62.89
70676;DHT22;59069;52.242;20.900;2022-12-29T10:44:56;8.66;62.67
70676;DHT22;59069;52.242;20.900;2022-12-29T10:47:28;8.73;62.65
70676;DHT22;59069;52.242;20.900;2022-12-29T10:49:55;8.72;62.15
70676;DHT22;59069;52.242;20.900;2022-12-29T10:52:24;8.77;62.04
70676;DHT22;59069;52.242;20.900;2022-12-29T10:55:02;8.79;61.94
70676;DHT22;59069;52.242;20.900;2022-12-29T10:57:39;8.81;61.75
70676;DHT22;59069;52.242;20.900;2022-12-29T11:00:18;8.83;61.83
70676;DHT22;59069;52.242;20.900;2022-12-29T11:08:30;8.91;61.75
70676;DHT22;59069;52.242;20.900;2022-12-29T11:11:08;8.94;61.55
70676;DHT22;59069;52.242;20.900;2022-12-29T11:13:58;8.94;61.36
70676;DHT22;59069;52.242;20.900;2022-12-29T11:16:32;8.97;61.36
70676;DHT22;59069;52.242;20.900;2022-12-29T11:19:00;8.96;61.44
70676;DHT22;59069;52.242;20.900;2022-12-29T11:21:36;9.01;61.31
70676;DHT22;59069;52.242;20.900;2022-12-29T11:24:27;9.00;61.29
70676;DHT22;59069;52.242;20.900;2022-12-29T11:29:40;9.04;61.21
70676;DHT22;59069;52.242;20.900;2022-12-29T11:32:22;9.08;61.20
70676;DHT22;59069;52.242;20.900;2022-12-29T11:34:48;9.11;61.08
70676;DHT22;59069;52.242;20.900;2022-12-29T11:37:29;9.08;61.13
70676;DHT22;59069;52.242;20.900;2022-12-29T11:40:05;9.10;61.29
70676;DHT22;59069;52.242;20.900;2022-12-29T11:43:02;9.10;61.40
70676;DHT22;59069;52.242;20.900;2022-12-29T11:45:34;9.11;61.38
70676;DHT22;59069;52.242;20.900;2022-12-29T11:48:08;9.11;61.35
70676;DHT22;59069;52.242;20.900;2022-12-29T11:50:39;9.16;61.37
70676;DHT22;59069;52.242;20.900;2022-12-29T11:53:20;9.14;61.36
70676;DHT22;59069;52.242;20.900;2022-12-29T11:55:57;9.14;61.43
70676;DHT22;59069;52.242;20.900;2022-12-29T11:58:35;9.18;61.45
70676;DHT22;59069;52.242;20.900;2022-12-29T12:01:15;9.21;61.56
70676;DHT22;59069;52.242;20.900;2022-12-29T12:04:12;9.26;61.63
70676;DHT22;59069;52.242;20.900;2022-12-29T12:06:44;9.27;61.59
70676;DHT22;59069;52.242;20.900;2022-12-29T12:09:33;9.32;61.60
70676;DHT22;59069;52.242;20.900;2022-12-29T12:12:01;9.37;61.55
70676;DHT22;59069;52.242;20.900;2022-12-29T12:14:32;9.37;61.43
70676;DHT22;59069;52.242;20.900;2022-12-29T12:17:02;9.41;61.40
70676;DHT22;59069;52.242;20.900;2022-12-29T12:19:43;9.44;61.48
70676;DHT22;59069;52.242;20.900;2022-12-29T12:22:34;9.48;61.45
70676;DHT22;59069;52.242;20.900;2022-12-29T12:25:14;9.45;61.43
70676;DHT22;59069;52.242;20.900;2022-12-29T12:30:26;9.49;61.53
70676;DHT22;59069;52.242;20.900;2022-12-29T12:35:57;9.57;61.57
70676;DHT22;59069;52.242;20.900;2022-12-29T12:41:12;9.62;61.43
70676;DHT22;59069;52.242;20.900;2022-12-29T12:44:06;9.67;61.13
70676;DHT22;59069;52.242;20.900;2022-12-29T12:52:48;9.75;60.72
70676;DHT22;59069;52.242;20.900;2022-12-29T13:01:30;9.81;60.38
70676;DHT22;59069;52.242;20.900;2022-12-29T13:10:14;9.79;60.35
70676;DHT22;59069;52.242;20.900;2022-12-29T13:21:02;9.86;60.75
70676;DHT22;59069;52.242;20.900;2022-12-29T13:26:21;9.86;61.00
70676;DHT22;59069;52.242;20.900;2022-12-29T13:31:39;9.90;60.99
70676;DHT22;59069;52.242;20.900;2022-12-29T13:34:43;9.89;61.10
70676;DHT22;59069;52.242;20.900;2022-12-29T13:37:17;9.90;61.14
70676;DHT22;59069;52.242;20.900;2022-12-29T13:39:57;9.90;61.19
70676;DHT22;59069;52.242;20.900;2022-12-29T13:42:25;9.93;61.27
70676;DHT22;59069;52.242;20.900;2022-12-29T13:45:00;9.92;61.34
70676;DHT22;59069;52.242;20.900;2022-12-29T13:47:38;9.93;61.41
70676;DHT22;59069;52.242;20.900;2022-12-29T13:50:18;9.93;61.43
70676;DHT22;59069;52.242;20.900;2022-12-29T13:52:55;9.92;61.33
70676;DHT22;59069;52.242;20.900;2022-12-29T13:55:40;9.92;61.25
70676;DHT22;59069;52.242;20.900;2022-12-29T13:58:19;9.89;61.22
70676;DHT22;59069;52.242;20.900;2022-12-29T14:01:00;9.89;61.29
70676;DHT22;59069;52.242;20.900;2022-12-29T14:03:44;9.88;61.22
70676;DHT22;59069;52.242;20.900;2022-12-29T14:08:48;9.88;61.17
70676;DHT22;59069;52.242;20.900;2022-12-29T14:11:16;9.85;61.16
70676;DHT22;59069;52.242;20.900;2022-12-29T14:13:45;9.89;61.03
70676;DHT22;59069;52.242;20.900;2022-12-29T14:16:32;9.83;61.09
70676;DHT22;59069;52.242;20.900;2022-12-29T14:19:13;9.81;61.05
70676;DHT22;59069;52.242;20.900;2022-12-29T14:21:40;9.79;61.10
70676;DHT22;59069;52.242;20.900;2022-12-29T14:34:54;9.77;61.32
70676;DHT22;59069;52.242;20.900;2022-12-29T14:37:36;9.78;61.34
70676;DHT22;59069;52.242;20.900;2022-12-29T14:40:19;9.78;61.33
70676;DHT22;59069;52.242;20.900;2022-12-29T14:42:49;9.75;61.32
70676;DHT22;59069;52.242;20.900;2022-12-29T14:47:50;9.74;61.30
70676;DHT22;59069;52.242;20.900;2022-12-29T14:52:58;9.75;61.45
70676;DHT22;59069;52.242;20.900;2022-12-29T14:55:45;9.77;61.35
70676;DHT22;59069;52.242;20.900;2022-12-29T14:58:30;9.77;61.37
70676;DHT22;59069;52.242;20.900;2022-12-29T15:00:58;9.77;61.48
70676;DHT22;59069;52.242;20.900;2022-12-29T15:03:33;9.77;61.42
70676;DHT22;59069;52.242;20.900;2022-12-29T15:06:12;9.74;61.39
70676;DHT22;59069;52.242;20.900;2022-12-29T15:08:54;9.72;61.51
70676;DHT22;59069;52.242;20.900;2022-12-29T15:12:05;9.69;61.66
70676;DHT22;59069;52.242;20.900;2022-12-29T15:16:55;9.68;62.14
70676;DHT22;59069;52.242;20.900;2022-12-29T15:19:21;9.68;62.29
70676;DHT22;59069;52.242;20.900;2022-12-29T15:21:47;9.68;62.30
70676;DHT22;59069;52.242;20.900;2022-12-29T15:24:14;9.69;62.35
70676;DHT22;59069;52.242;20.900;2022-12-29T15:26:45;9.72;62.41
70676;DHT22;59069;52.242;20.900;2022-12-29T15:29:42;9.71;62.42
70676;DHT22;59069;52.242;20.900;2022-12-29T15:32:18;9.72;62.31
70676;DHT22;59069;52.242;20.900;2022-12-29T15:34:46;9.74;62.24
70676;DHT22;59069;52.242;20.900;2022-12-29T15:37:24;9.69;62.26
70676;DHT22;59069;52.242;20.900;2022-12-29T15:39:51;9.67;62.22
70676;DHT22;59069;52.242;20.900;2022-12-29T15:42:38;9.62;62.42
70676;DHT22;59069;52.242;20.900;2022-12-29T15:45:11;9.59;62.62
70676;DHT22;59069;52.242;20.900;2022-12-29T15:47:38;9.57;62.64
70676;DHT22;59069;52.242;20.900;2022-12-29T15:50:08;9.54;62.80
70676;DHT22;59069;52.242;20.900;2022-12-29T15:52:35;9.48;62.81
70676;DHT22;59069;52.242;20.900;2022-12-29T15:55:04;9.42;62.83
70676;DHT22;59069;52.242;20.900;2022-12-29T15:57:36;9.38;63.23
70676;DHT22;59069;52.242;20.900;2022-12-29T16:00:04;9.38;63.44
70676;DHT22;59069;52.242;20.900;2022-12-29T16:02:46;9.32;63.57
70676;DHT22;59069;52.242;20.900;2022-12-29T16:05:17;9.28;63.70
70676;DHT22;59069;52.242;20.900;2022-12-29T16:07:57;9.28;63.98
70676;DHT22;59069;52.242;20.900;2022-12-29T16:10:31;9.24;64.03
70676;DHT22;59069;52.242;20.900;2022-12-29T16:16:22;9.20;64.37
70676;DHT22;59069;52.242;20.900;2022-12-29T16:18:50;9.20;64.54
70676;DHT22;59069;52.242;20.900;2022-12-29T16:21:21;9.18;64.60
70676;DHT22;59069;52.242;20.900;2022-12-29T16:23:51;9.18;64.63
70676;DHT22;59069;52.242;20.900;2022-12-29T16:26:19;9.16;64.75
70676;DHT22;59069;52.242;20.900;2022-12-29T16:28:48;9.13;64.83
70676;DHT22;59069;52.242;20.900;2022-12-29T16:31:57;9.04;65.05
70676;DHT22;59069;52.242;20.900;2022-12-29T16:37:31;9.03;65.45
70676;DHT22;59069;52.242;20.900;2022-12-29T16:40:27;9.06;65.72
70676;DHT22;59069;52.242;20.900;2022-12-29T16:43:00;9.06;65.77
70676;DHT22;59069;52.242;20.900;2022-12-29T16:50:41;9.13;65.93
70676;DHT22;59069;52.242;20.900;2022-12-29T16:55:48;9.24;65.76
70676;DHT22;59069;52.242;20.900;2022-12-29T16:58:32;9.27;65.67
70676;DHT22;59069;52.242;20.900;2022-12-29T17:01:02;9.31;65.49
70676;DHT22;59069;52.242;20.900;2022-12-29T17:03:37;9.31;65.57
70676;DHT22;59069;52.242;20.900;2022-12-29T17:06:04;9.35;65.50
70676;DHT22;59069;52.242;20.900;2022-12-29T17:08:40;9.39;65.38
70676;DHT22;59069;52.242;20.900;2022-12-29T17:11:34;9.42;65.17
70676;DHT22;59069;52.242;20.900;2022-12-29T17:16:43;9.49;64.94
70676;DHT22;59069;52.242;20.900;2022-12-29T17:19:16;9.51;64.86
70676;DHT22;59069;52.242;20.900;2022-12-29T17:21:42;9.51;64.81
70676;DHT22;59069;52.242;20.900;2022-12-29T17:24:18;9.51;64.82
70676;DHT22;59069;52.242;20.900;2022-12-29T17:26:46;9.51;64.74
70676;DHT22;59069;52.242;20.900;2022-12-29T17:29:25;9.54;64.71
70676;DHT22;59069;52.242;20.900;2022-12-29T17:31:54;9.54;64.76
70676;DHT22;59069;52.242;20.900;2022-12-29T17:34:20;9.52;64.69
70676;DHT22;59069;52.242;20.900;2022-12-29T17:36:45;9.54;64.65
70676;DHT22;59069;52.242;20.900;2022-12-29T17:39:11;9.49;64.65
70676;DHT22;59069;52.242;20.900;2022-12-29T17:41:37;9.51;64.72
70676;DHT22;59069;52.242;20.900;2022-12-29T17:44:03;9.49;64.73
70676;DHT22;59069;52.242;20.900;2022-12-29T17:46:29;9.49;64.77
70676;DHT22;59069;52.242;20.900;2022-12-29T17:48:55;9.49;64.87
70676;DHT22;59069;52.242;20.900;2022-12-29T17:51:21;9.45;64.87
70676;DHT22;59069;52.242;20.900;2022-12-29T17:53:47;9.44;64.92
70676;DHT22;59069;52.242;20.900;2022-12-29T17:56:14;9.47;65.00
70676;DHT22;59069;52.242;20.900;2022-12-29T17:58:40;9.47;64.97
70676;DHT22;59069;52.242;20.900;2022-12-29T18:01:06;9.47;65.00
70676;DHT22;59069;52.242;20.900;2022-12-29T18:03:34;9.45;65.07
70676;DHT22;59069;52.242;20.900;2022-12-29T18:06:01;9.42;65.11
70676;DHT22;59069;52.242;20.900;2022-12-29T18:08:31;9.42;65.17
70676;DHT22;59069;52.242;20.900;2022-12-29T18:10:57;9.41;65.17
70676;DHT22;59069;52.242;20.900;2022-12-29T18:13:26;9.41;65.23
70676;DHT22;59069;52.242;20.900;2022-12-29T18:15:52;9.38;65.37
70676;DHT22;59069;52.242;20.900;2022-12-29T18:18:20;9.39;65.37
70676;DHT22;59069;52.242;20.900;2022-12-29T18:20:47;9.37;65.38